Time;durP1;ratioP1;P1;durP2;ratioP2;P2;SDS_P1;SDS_P2;PMS_P1;PMS_P2;Temp;Humidity;BMP_temperature;BMP_pressure;BME280_temperature;BME280_humidity;BME280_pressure;Samples;Min_cycle;Max_cycle;Signal;HPM_P1;HPM_P2
2021/01/26 00:00:56;;;;;;;2.65;1.77;;;0.70;99.90;;;;;;5036695;28;20045;-67
2021/01/26 00:03:24;;;;;;;2.78;1.23;;;0.70;99.90;;;;;;5039382;28;20125;-66
2021/01/26 00:05:51;;;;;;;1.55;1.30;;;0.60;99.90;;;;;;5040496;28;20128;-66
2021/01/26 00:08:18;;;;;;;3.15;2.30;;;0.70;99.90;;;;;;5040007;28;20140;-69
2021/01/26 00:10:45;;;;;;;2.22;0.82;;;0.70;99.90;;;;;;5039685;28;20127;-68
2021/01/26 00:13:11;;;;;;;3.40;1.10;;;0.70;99.90;;;;;;5039092;28;20825;-67
2021/01/26 00:15:38;;;;;;;1.58;0.85;;;0.70;99.90;;;;;;5040896;28;20140;-66
2021/01/26 00:18:05;;;;;;;1.67;0.98;;;0.70;99.90;;;;;;5038224;28;20033;-66
2021/01/26 00:20:33;;;;;;;0.85;0.47;;;0.70;99.90;;;;;;5036018;28;20359;-70
2021/01/26 00:22:59;;;;;;;1.77;1.05;;;0.70;99.90;;;;;;5034448;28;20111;-68
2021/01/26 00:25:31;;;;;;;1.60;0.52;;;0.70;99.90;;;;;;5044478;28;20060;-67
2021/01/26 00:27:58;;;;;;;1.00;0.90;;;0.70;99.90;;;;;;5037080;28;20040;-66
2021/01/26 00:30:31;;;;;;;5.53;1.40;;;0.70;99.90;;;;;;5039625;28;20130;-66
2021/01/26 00:32:59;;;;;;;1.65;0.77;;;0.70;99.90;;;;;;5037276;28;20152;-70
2021/01/26 00:35:29;;;;;;;2.55;0.88;;;0.70;99.90;;;;;;5040452;28;20546;-66
2021/01/26 00:37:57;;;;;;;1.50;0.80;;;0.70;99.90;;;;;;5036785;28;20060;-68
2021/01/26 00:40:24;;;;;;;2.13;1.10;;;0.60;99.90;;;;;;5037808;28;20067;-67
2021/01/26 00:42:50;;;;;;;2.65;0.80;;;0.70;99.90;;;;;;5039087;28;20330;-69
2021/01/26 00:45:18;;;;;;;5.50;1.30;;;0.70;99.90;;;;;;5039195;28;20393;-69
2021/01/26 00:47:45;;;;;;;2.88;1.02;;;0.60;99.90;;;;;;5041180;28;20075;-67
2021/01/26 00:50:13;;;;;;;4.28;1.38;;;0.60;99.90;;;;;;5032919;28;20452;-72
2021/01/26 00:52:39;;;;;;;2.42;0.95;;;0.60;99.90;;;;;;5039283;28;20433;-67
2021/01/26 00:55:14;;;;;;;1.60;1.10;;;0.60;99.90;;;;;;5031561;28;20589;-68
2021/01/26 00:57:41;;;;;;;1.30;0.75;;;0.60;99.90;;;;;;5041189;28;20128;-69
2021/01/26 01:00:16;;;;;;;1.83;0.95;;;0.70;99.90;;;;;;5037055;28;20047;-68
2021/01/26 01:03:02;;;;;;;2.75;1.02;;;0.70;99.90;;;;;;5039313;28;20052;-67
2021/01/26 01:05:29;;;;;;;3.50;0.88;;;0.70;99.90;;;;;;5037122;28;20049;-68
2021/01/26 01:07:55;;;;;;;4.88;1.00;;;0.70;99.90;;;;;;5038762;28;20044;-68
2021/01/26 01:10:25;;;;;;;1.30;0.88;;;0.70;99.90;;;;;;5037758;28;20049;-67
2021/01/26 01:12:52;;;;;;;1.00;0.90;;;0.70;99.90;;;;;;5036029;28;20443;-69
2021/01/26 01:15:20;;;;;;;2.05;1.05;;;0.60;99.90;;;;;;5037120;28;20163;-69
2021/01/26 01:17:47;;;;;;;4.30;0.88;;;0.60;99.90;;;;;;5037561;28;20625;-67
2021/01/26 01:20:16;;;;;;;3.20;1.20;;;0.50;99.90;;;;;;5036216;28;20057;-71
2021/01/26 01:22:43;;;;;;;2.30;0.90;;;0.50;99.90;;;;;;5034156;28;20071;-67
2021/01/26 01:25:10;;;;;;;0.80;0.73;;;0.50;99.90;;;;;;5042679;28;20044;-66
2021/01/26 01:27:38;;;;;;;1.73;0.90;;;0.50;99.90;;;;;;5034589;28;20055;-70
2021/01/26 01:30:07;;;;;;;3.63;0.93;;;0.50;99.90;;;;;;5043467;28;20052;-68
2021/01/26 01:32:34;;;;;;;1.48;0.95;;;0.60;99.90;;;;;;5036672;28;20056;-66
2021/01/26 01:35:01;;;;;;;1.63;0.88;;;0.60;99.90;;;;;;5038917;28;20573;-70
2021/01/26 01:37:27;;;;;;;2.28;0.82;;;0.60;99.90;;;;;;5035324;28;20049;-68
2021/01/26 01:39:53;;;;;;;1.23;0.70;;;0.60;99.90;;;;;;5039851;28;20056;-68
2021/01/26 01:42:20;;;;;;;1.92;0.75;;;0.60;99.90;;;;;;5037103;28;20059;-69
2021/01/26 01:44:46;;;;;;;0.90;0.60;;;0.60;99.90;;;;;;5039125;28;20057;-66
2021/01/26 01:47:43;;;;;;;0.85;0.50;;;0.50;99.90;;;;;;5040854;28;20393;-69
2021/01/26 01:50:17;;;;;;;1.25;1.00;;;0.60;99.90;;;;;;5036845;28;20033;-67
2021/01/26 01:52:44;;;;;;;0.88;0.88;;;0.60;99.90;;;;;;5030817;28;20453;-69
2021/01/26 01:55:18;;;;;;;0.90;0.60;;;0.60;99.90;;;;;;5038247;28;20065;-67
2021/01/26 01:58:03;;;;;;;1.45;1.02;;;0.60;99.90;;;;;;5038388;28;20040;-68
2021/01/26 02:00:30;;;;;;;1.77;0.80;;;0.50;99.90;;;;;;5036202;28;20048;-68
2021/01/26 02:03:27;;;;;;;2.83;0.80;;;0.50;99.90;;;;;;5040700;28;20060;-68
2021/01/26 02:05:56;;;;;;;1.05;0.75;;;0.60;99.90;;;;;;5036035;28;20362;-68
2021/01/26 02:08:32;;;;;;;0.82;0.75;;;0.60;99.90;;;;;;5038122;28;20100;-67
2021/01/26 02:10:59;;;;;;;1.17;0.60;;;0.60;99.90;;;;;;5036770;28;20044;-67
2021/01/26 02:13:25;;;;;;;0.63;0.63;;;0.60;99.90;;;;;;5030147;28;20132;-67
2021/01/26 02:15:58;;;;;;;2.08;1.20;;;0.60;99.90;;;;;;5038400;28;20084;-70
2021/01/26 02:18:53;;;;;;;0.50;0.47;;;0.60;99.90;;;;;;5032508;28;20051;-70
2021/01/26 02:21:22;;;;;;;1.75;0.82;;;0.60;99.90;;;;;;5034805;28;20037;-67
2021/01/26 02:24:04;;;;;;;0.85;0.52;;;0.60;99.90;;;;;;5042100;28;20443;-68
2021/01/26 02:26:51;;;;;;;1.00;0.88;;;0.60;99.90;;;;;;5040421;28;20053;-72
2021/01/26 02:29:35;;;;;;;1.25;0.80;;;0.60;99.90;;;;;;5044617;28;20056;-66
2021/01/26 02:32:20;;;;;;;1.50;0.60;;;0.70;99.90;;;;;;5041562;28;20048;-66
2021/01/26 02:35:29;;;;;;;0.90;0.70;;;0.60;99.90;;;;;;5041920;28;20174;-68
2021/01/26 02:38:11;;;;;;;2.38;0.60;;;0.60;99.90;;;;;;5037133;28;20646;-66
2021/01/26 02:40:46;;;;;;;1.10;0.93;;;0.70;99.90;;;;;;5040426;28;20139;-67
2021/01/26 02:43:36;;;;;;;1.80;0.80;;;0.60;99.90;;;;;;5040058;28;20045;-68
2021/01/26 02:46:39;;;;;;;3.20;2.00;;;0.60;99.90;;;;;;5042783;28;20048;-67
2021/01/26 02:49:22;;;;;;;1.67;1.00;;;0.60;99.90;;;;;;5042361;28;20715;-68
2021/01/26 02:52:14;;;;;;;0.93;0.80;;;0.60;99.90;;;;;;5040900;28;20123;-69
2021/01/26 02:54:52;;;;;;;2.15;1.00;;;0.70;99.90;;;;;;5039558;28;20048;-67
2021/01/26 02:57:56;;;;;;;2.25;0.80;;;0.70;99.90;;;;;;5041792;28;20674;-69
2021/01/26 03:00:28;;;;;;;2.38;1.17;;;0.70;99.90;;;;;;5028333;28;20050;-67
2021/01/26 03:03:18;;;;;;;1.20;0.73;;;0.80;99.90;;;;;;5040843;28;20073;-66
2021/01/26 03:05:51;;;;;;;0.95;0.60;;;0.80;99.90;;;;;;5044522;28;20144;-67
2021/01/26 03:08:23;;;;;;;4.63;1.30;;;0.70;99.90;;;;;;5035136;28;20045;-67
2021/01/26 03:10:56;;;;;;;1.75;1.17;;;0.70;99.90;;;;;;5045716;28;20043;-67
2021/01/26 03:13:26;;;;;;;1.65;1.17;;;0.80;99.90;;;;;;5038899;28;20393;-72
2021/01/26 03:15:59;;;;;;;3.13;0.82;;;0.80;99.90;;;;;;5043988;28;20053;-69
2021/01/26 03:18:39;;;;;;;1.02;0.85;;;0.80;99.90;;;;;;5039213;28;20078;-66
2021/01/26 03:21:10;;;;;;;1.00;0.70;;;0.80;99.90;;;;;;5041177;28;20045;-68
2021/01/26 03:23:43;;;;;;;3.40;0.90;;;0.80;99.90;;;;;;5040496;28;20095;-66
2021/01/26 03:26:19;;;;;;;2.03;0.73;;;0.80;99.90;;;;;;5040098;28;20045;-67
2021/01/26 03:28:49;;;;;;;0.60;0.52;;;0.80;99.90;;;;;;5036801;28;20414;-67
2021/01/26 03:31:18;;;;;;;;;;;0.80;99.90;;;;;;5039238;28;20508;-68
2021/01/26 03:33:52;;;;;;;1.27;0.85;;;0.80;99.90;;;;;;5039223;28;19924;-71
2021/01/26 03:36:19;;;;;;;1.05;0.90;;;0.80;99.90;;;;;;5049051;28;20041;-69
2021/01/26 03:38:48;;;;;;;0.50;0.40;;;0.80;99.90;;;;;;5045845;28;20467;-66
2021/01/26 03:41:16;;;;;;;0.98;0.88;;;0.80;99.90;;;;;;5036696;28;20382;-66
2021/01/26 03:43:43;;;;;;;1.10;0.52;;;0.80;99.90;;;;;;5045018;28;20114;-66
2021/01/26 03:46:24;;;;;;;1.65;1.05;;;0.80;99.90;;;;;;5038456;28;20163;-66
2021/01/26 03:49:16;;;;;;;5.05;0.98;;;0.80;99.90;;;;;;5038975;28;20141;-68
2021/01/26 03:51:50;;;;;;;0.93;0.65;;;0.90;99.90;;;;;;5038256;28;20049;-67
2021/01/26 03:54:32;;;;;;;1.30;0.75;;;0.90;99.90;;;;;;5041654;28;20044;-67
2021/01/26 03:57:29;;;;;;;1.17;0.63;;;0.90;99.90;;;;;;5035104;28;20063;-71
2021/01/26 04:00:10;;;;;;;1.05;0.75;;;0.90;99.90;;;;;;5042540;28;20070;-68
2021/01/26 04:03:08;;;;;;;2.85;0.93;;;1.00;99.90;;;;;;5035748;28;20056;-66
2021/01/26 04:05:41;;;;;;;0.80;0.68;;;1.00;99.90;;;;;;5040295;28;20199;-67
2021/01/26 04:08:16;;;;;;;0.47;0.47;;;0.90;99.90;;;;;;5037169;28;20053;-66
2021/01/26 04:10:57;;;;;;;0.95;0.80;;;1.00;99.90;;;;;;5040363;28;20045;-68
2021/01/26 04:13:34;;;;;;;1.13;0.85;;;1.00;99.90;;;;;;5036161;28;20049;-69
2021/01/26 04:16:02;;;;;;;2.25;0.75;;;1.00;99.90;;;;;;5042994;28;20059;-68
2021/01/26 04:18:34;;;;;;;1.75;1.10;;;1.00;99.90;;;;;;5032713;28;20418;-67
2021/01/26 04:21:03;;;;;;;1.35;0.90;;;1.00;99.90;;;;;;5038654;28;20389;-70
2021/01/26 04:23:29;;;;;;;1.33;0.93;;;1.00;99.90;;;;;;5031373;28;20122;-66
2021/01/26 04:26:05;;;;;;;2.08;0.80;;;1.00;99.90;;;;;;5043754;28;20053;-66
2021/01/26 04:28:43;;;;;;;1.33;0.80;;;1.00;99.90;;;;;;5035383;28;20049;-66
2021/01/26 04:31:12;;;;;;;2.85;0.90;;;1.00;99.90;;;;;;5041576;28;20048;-68
2021/01/26 04:33:40;;;;;;;1.02;0.50;;;1.00;99.90;;;;;;5038669;28;20069;-69
2021/01/26 04:36:08;;;;;;;1.13;0.77;;;1.00;99.90;;;;;;5039253;28;20335;-67
2021/01/26 04:38:35;;;;;;;0.95;0.60;;;1.00;99.90;;;;;;5037302;28;20429;-66
2021/01/26 04:41:25;;;;;;;2.35;0.90;;;1.00;99.90;;;;;;5038542;28;20071;-69
2021/01/26 04:44:24;;;;;;;2.10;0.80;;;1.00;99.90;;;;;;5024817;28;20068;-66
2021/01/26 04:47:21;;;;;;;0.77;0.50;;;1.00;99.90;;;;;;5038414;28;20106;-67
2021/01/26 04:49:53;;;;;;;2.22;0.95;;;1.00;99.90;;;;;;5037651;28;20037;-67
2021/01/26 04:52:39;;;;;;;0.88;0.55;;;1.10;99.90;;;;;;5038176;28;20057;-67
2021/01/26 04:55:29;;;;;;;1.95;0.75;;;1.10;99.90;;;;;;5037876;28;20068;-67
2021/01/26 04:58:40;;;;;;;1.17;0.77;;;1.10;99.90;;;;;;5043189;28;20056;-67
2021/01/26 05:01:36;;;;;;;1.17;0.77;;;1.10;99.90;;;;;;5034112;28;20220;-66
2021/01/26 05:04:09;;;;;;;0.95;0.80;;;1.10;99.90;;;;;;5041078;28;20153;-68
2021/01/26 05:06:49;;;;;;;2.17;0.73;;;1.10;99.90;;;;;;5032967;28;20132;-66
2021/01/26 05:09:29;;;;;;;1.90;1.17;;;1.20;99.90;;;;;;5037202;28;20521;-67
2021/01/26 05:11:57;;;;;;;1.33;0.80;;;1.10;99.90;;;;;;5036938;28;20140;-66
2021/01/26 05:14:46;;;;;;;0.85;0.65;;;1.20;99.90;;;;;;5036336;28;20053;-68
2021/01/26 05:17:28;;;;;;;2.53;0.68;;;1.10;99.90;;;;;;5035630;28;20060;-66
2021/01/26 05:20:07;;;;;;;2.47;0.90;;;1.20;99.90;;;;;;5040295;28;20049;-69
2021/01/26 05:22:59;;;;;;;1.10;0.60;;;1.10;99.90;;;;;;5028727;28;20133;-69
2021/01/26 05:25:27;;;;;;;1.50;1.00;;;1.10;99.90;;;;;;5036818;28;20153;-67
2021/01/26 05:27:54;;;;;;;1.40;0.95;;;1.10;99.90;;;;;;5034242;28;20040;-68
2021/01/26 05:30:29;;;;;;;1.92;1.10;;;1.10;99.90;;;;;;5032814;28;20057;-67
2021/01/26 05:33:08;;;;;;;3.22;0.65;;;1.10;99.90;;;;;;5039438;28;20045;-66
2021/01/26 05:36:02;;;;;;;1.27;0.65;;;1.10;99.90;;;;;;5038748;28;20053;-67
2021/01/26 05:38:29;;;;;;;2.28;0.52;;;1.20;99.90;;;;;;5033255;28;20746;-66
2021/01/26 05:41:00;;;;;;;1.27;0.70;;;1.20;99.90;;;;;;5040375;28;20135;-69
2021/01/26 05:43:32;;;;;;;5.00;1.30;;;1.10;99.90;;;;;;5035954;28;20082;-67
2021/01/26 05:46:01;;;;;;;1.67;0.77;;;1.10;99.90;;;;;;5035687;28;20128;-71
2021/01/26 05:48:43;;;;;;;2.38;0.70;;;1.10;99.90;;;;;;5037625;28;20060;-71
2021/01/26 05:51:26;;;;;;;1.67;1.30;;;1.10;99.90;;;;;;5037549;28;20155;-66
2021/01/26 05:54:02;;;;;;;2.00;1.35;;;1.10;99.90;;;;;;5037270;28;20636;-67
2021/01/26 05:56:29;;;;;;;1.58;0.88;;;1.00;99.90;;;;;;5035099;28;20049;-66
2021/01/26 05:58:56;;;;;;;1.92;0.98;;;1.00;99.90;;;;;;5037338;28;20041;-67
2021/01/26 06:01:22;;;;;;;1.00;0.80;;;1.00;99.90;;;;;;5038520;28;20469;-66
2021/01/26 06:04:09;;;;;;;1.15;1.02;;;1.00;99.90;;;;;;5040406;28;20048;-66
2021/01/26 06:06:54;;;;;;;1.83;0.93;;;0.90;99.90;;;;;;5034477;28;20049;-66
2021/01/26 06:09:38;;;;;;;0.98;0.77;;;0.90;99.90;;;;;;5039508;28;20095;-68
2021/01/26 06:12:05;;;;;;;1.92;1.20;;;0.90;99.90;;;;;;5036281;28;20191;-66
2021/01/26 06:14:32;;;;;;;1.67;0.95;;;0.80;99.90;;;;;;5039930;28;20040;-68
2021/01/26 06:17:27;;;;;;;2.58;0.70;;;0.90;99.90;;;;;;5035748;28;20045;-70
2021/01/26 06:20:13;;;;;;;1.92;1.02;;;0.90;99.90;;;;;;5040542;28;20489;-66
2021/01/26 06:22:40;;;;;;;1.98;0.98;;;1.00;99.90;;;;;;5033202;28;20679;-67
2021/01/26 06:25:27;;;;;;;1.13;0.80;;;1.00;99.90;;;;;;5039087;28;20504;-69
2021/01/26 06:28:24;;;;;;;1.17;1.08;;;1.00;99.90;;;;;;5038199;28;20748;-66
2021/01/26 06:31:34;;;;;;;1.05;0.90;;;1.00;99.90;;;;;;5038227;28;20122;-66
2021/01/26 06:34:38;;;;;;;2.17;1.27;;;1.10;99.90;;;;;;5036070;28;20057;-68
2021/01/26 06:37:33;;;;;;;2.90;1.23;;;1.10;99.90;;;;;;5026974;28;20592;-67
2021/01/26 06:40:05;;;;;;;2.03;0.75;;;1.10;99.90;;;;;;5038933;28;20167;-66
2021/01/26 06:42:43;;;;;;;2.30;0.63;;;1.10;99.90;;;;;;5036252;28;20406;-66
2021/01/26 06:45:39;;;;;;;1.08;0.90;;;1.00;99.90;;;;;;5035148;28;20041;-66
2021/01/26 06:48:21;;;;;;;2.47;1.10;;;1.10;99.90;;;;;;5025619;28;20600;-68
2021/01/26 06:51:11;;;;;;;3.75;0.90;;;1.10;99.90;;;;;;5036632;28;20049;-66
2021/01/26 06:54:08;;;;;;;3.47;1.23;;;1.10;99.90;;;;;;5028674;28;20076;-66
2021/01/26 06:57:05;;;;;;;1.50;0.77;;;1.10;99.90;;;;;;5037883;28;20041;-66
2021/01/26 06:59:54;;;;;;;1.33;0.85;;;1.10;99.90;;;;;;5037495;28;20033;-66
2021/01/26 07:02:34;;;;;;;1.20;0.82;;;1.00;99.90;;;;;;5033964;28;20037;-66
2021/01/26 07:05:18;;;;;;;1.77;0.90;;;1.10;99.90;;;;;;5036526;28;20595;-67
2021/01/26 07:08:29;;;;;;;2.15;0.80;;;1.00;99.90;;;;;;5035193;28;20121;-68
2021/01/26 07:11:14;;;;;;;3.38;0.80;;;1.00;99.90;;;;;;5016430;28;20211;-66
2021/01/26 07:13:59;;;;;;;1.02;0.70;;;1.00;99.90;;;;;;5044300;28;20037;-66
2021/01/26 07:16:53;;;;;;;1.45;1.35;;;1.00;99.90;;;;;;5038056;28;20040;-66
2021/01/26 07:19:22;;;;;;;1.70;1.30;;;1.00;99.90;;;;;;5039500;28;20493;-67
2021/01/26 07:21:57;;;;;;;0.47;0.40;;;1.00;99.90;;;;;;5038196;28;20137;-70
2021/01/26 07:24:29;;;;;;;1.23;0.60;;;1.00;99.90;;;;;;5040863;28;20041;-68
2021/01/26 07:27:33;;;;;;;3.38;0.75;;;1.00;99.90;;;;;;5036865;28;20045;-68
2021/01/26 07:30:11;;;;;;;1.98;0.70;;;1.00;99.90;;;;;;5042385;28;20041;-66
2021/01/26 07:33:03;;;;;;;1.80;1.27;;;1.00;99.90;;;;;;5037577;28;20041;-67
2021/01/26 07:35:52;;;;;;;1.85;1.38;;;0.90;99.90;;;;;;5038805;28;20052;-70
2021/01/26 07:38:33;;;;;;;1.92;1.70;;;0.90;99.90;;;;;;5036021;28;20041;-68
2021/01/26 07:41:18;;;;;;;1.50;1.20;;;0.90;99.90;;;;;;5040832;28;20061;-67
2021/01/26 07:44:12;;;;;;;2.22;1.15;;;0.90;99.90;;;;;;5036832;28;20045;-69
2021/01/26 07:46:48;;;;;;;1.40;1.00;;;0.90;99.90;;;;;;5035947;28;20045;-68
2021/01/26 07:49:38;;;;;;;1.15;0.88;;;0.90;99.90;;;;;;5038967;28;20041;-68
2021/01/26 07:52:06;;;;;;;0.80;0.60;;;1.00;99.90;;;;;;5039638;28;20045;-68
2021/01/26 07:54:45;;;;;;;1.20;0.55;;;0.90;99.90;;;;;;5038667;28;20045;-66
2021/01/26 07:57:16;;;;;;;1.17;1.00;;;0.80;99.90;;;;;;5040137;28;20129;-65
2021/01/26 07:59:52;;;;;;;1.20;0.80;;;0.80;99.90;;;;;;5039779;28;20520;-68
2021/01/26 08:02:27;;;;;;;1.52;0.88;;;0.80;99.90;;;;;;5036495;28;20437;-67
2021/01/26 08:04:54;;;;;;;1.48;0.70;;;0.80;99.90;;;;;;5036677;28;20247;-67
2021/01/26 08:07:32;;;;;;;1.45;0.85;;;0.80;99.90;;;;;;5032722;28;20055;-69
2021/01/26 08:10:02;;;;;;;0.93;0.82;;;0.80;99.90;;;;;;5039448;28;20120;-67
2021/01/26 08:12:31;;;;;;;1.85;0.95;;;0.80;99.90;;;;;;5040350;28;20051;-67
2021/01/26 08:15:27;;;;;;;1.05;0.80;;;0.80;99.90;;;;;;5037071;28;20052;-70
2021/01/26 08:17:54;;;;;;;1.02;0.65;;;0.80;99.90;;;;;;5041884;28;20044;-68
2021/01/26 08:20:20;;;;;;;2.03;0.80;;;0.80;99.90;;;;;;5038231;28;20057;-69
2021/01/26 08:22:59;;;;;;;1.52;1.00;;;0.80;99.90;;;;;;5039843;28;20080;-67
2021/01/26 08:25:36;;;;;;;1.77;0.90;;;0.80;99.90;;;;;;5036750;28;20049;-66
2021/01/26 08:28:08;;;;;;;1.40;1.13;;;0.70;99.90;;;;;;5040779;28;20057;-67
2021/01/26 08:30:49;;;;;;;1.58;0.68;;;0.70;99.90;;;;;;5034206;28;20473;-65
2021/01/26 08:33:19;;;;;;;1.00;0.75;;;0.70;99.90;;;;;;5037098;28;20052;-65
2021/01/26 08:35:48;;;;;;;1.15;0.82;;;0.80;99.90;;;;;;5031965;28;20539;-66
2021/01/26 08:38:59;;;;;;;1.48;0.80;;;0.80;99.90;;;;;;5039616;28;20049;-66
2021/01/26 08:41:42;;;;;;;2.80;1.20;;;0.80;99.90;;;;;;5036839;28;20049;-67
2021/01/26 08:44:18;;;;;;;1.83;1.13;;;0.80;99.90;;;;;;5039486;28;20045;-67
2021/01/26 08:46:46;;;;;;;4.25;1.40;;;0.80;99.90;;;;;;5036396;28;20049;-65
2021/01/26 08:49:18;;;;;;;3.47;2.38;;;0.80;99.90;;;;;;5033869;28;20040;-68
2021/01/26 08:51:45;;;;;;;5.68;1.63;;;0.70;99.90;;;;;;5039564;28;20041;-70
2021/01/26 08:54:36;;;;;;;1.48;1.20;;;0.70;99.90;;;;;;5036868;28;20045;-66
2021/01/26 08:57:27;;;;;;;3.90;1.67;;;0.70;99.90;;;;;;5036722;28;20122;-67
2021/01/26 09:00:19;;;;;;;2.10;1.33;;;0.70;99.90;;;;;;5040916;28;20052;-66
2021/01/26 09:02:51;;;;;;;1.20;0.88;;;0.60;99.90;;;;;;5034912;28;20458;-67
2021/01/26 09:05:36;;;;;;;1.60;0.82;;;0.50;99.90;;;;;;5041091;28;20048;-66
2021/01/26 09:08:07;;;;;;;0.90;0.80;;;0.50;99.90;;;;;;5032535;28;20047;-68
2021/01/26 09:10:46;;;;;;;1.98;0.70;;;0.50;99.90;;;;;;5039191;28;20041;-65
2021/01/26 09:13:28;;;;;;;1.65;1.00;;;0.40;99.90;;;;;;5036441;28;20040;-65
2021/01/26 09:15:59;;;;;;;2.95;1.08;;;0.50;99.90;;;;;;5039264;28;20484;-66
2021/01/26 09:18:29;;;;;;;0.93;0.68;;;0.50;99.90;;;;;;5030728;28;20048;-66
2021/01/26 09:21:04;;;;;;;1.27;0.80;;;0.60;99.90;;;;;;5035434;28;20091;-65
2021/01/26 09:23:31;;;;;;;1.52;0.68;;;0.60;99.90;;;;;;5036852;28;20618;-67
2021/01/26 09:25:59;;;;;;;3.58;1.65;;;0.60;99.90;;;;;;5040600;28;20053;-66
2021/01/26 09:28:37;;;;;;;1.10;1.00;;;0.60;99.90;;;;;;5037079;28;20059;-66
2021/01/26 09:31:04;;;;;;;2.38;1.00;;;0.60;99.90;;;;;;5039337;28;20415;-67
2021/01/26 09:33:33;;;;;;;1.65;0.98;;;0.60;99.90;;;;;;5035078;28;20460;-69
2021/01/26 09:36:02;;;;;;;2.38;1.35;;;0.60;99.90;;;;;;5039455;28;20053;-65
2021/01/26 09:38:32;;;;;;;0.95;0.80;;;0.60;99.90;;;;;;5032749;28;20076;-69
2021/01/26 09:41:29;;;;;;;3.47;0.85;;;0.50;99.90;;;;;;5035801;28;20060;-69
2021/01/26 09:44:04;;;;;;;1.50;0.70;;;0.50;99.90;;;;;;5032348;28;20041;-67
2021/01/26 09:46:44;;;;;;;1.02;0.73;;;0.50;99.90;;;;;;5036056;28;20079;-67
2021/01/26 09:49:30;;;;;;;3.20;0.90;;;0.50;99.90;;;;;;5036131;28;20747;-66
2021/01/26 09:52:07;;;;;;;0.77;0.73;;;0.50;99.90;;;;;;5037609;28;20453;-70
2021/01/26 09:54:37;;;;;;;1.45;0.80;;;0.60;99.90;;;;;;5033881;28;20044;-68
2021/01/26 09:57:06;;;;;;;3.88;0.80;;;0.60;99.90;;;;;;5035845;28;20045;-66
2021/01/26 09:59:34;;;;;;;1.67;0.90;;;0.60;99.90;;;;;;5044520;28;20442;-67
2021/01/26 10:02:06;;;;;;;0.65;0.60;;;0.60;99.90;;;;;;5039264;28;20045;-72
2021/01/26 10:04:34;;;;;;;2.85;0.77;;;0.50;99.90;;;;;;5038214;28;20645;-65
2021/01/26 10:07:19;;;;;;;3.35;1.23;;;0.60;99.90;;;;;;5032319;28;20052;-67
2021/01/26 10:09:45;;;;;;;1.35;1.10;;;0.50;99.90;;;;;;5038362;28;20041;-67
2021/01/26 10:12:40;;;;;;;4.18;0.90;;;0.60;99.90;;;;;;5035089;28;20060;-69
2021/01/26 10:15:26;;;;;;;1.23;0.90;;;0.70;99.90;;;;;;5036257;28;20128;-67
2021/01/26 10:18:12;;;;;;;1.38;1.00;;;0.70;99.90;;;;;;5037215;28;20357;-68
2021/01/26 10:20:45;;;;;;;1.50;1.08;;;0.60;99.90;;;;;;5037776;28;20121;-66
2021/01/26 10:23:20;;;;;;;1.25;0.73;;;0.60;99.90;;;;;;5032931;28;20044;-66
2021/01/26 10:25:47;;;;;;;3.55;0.98;;;0.60;99.90;;;;;;5038909;28;20142;-65
2021/01/26 10:28:24;;;;;;;1.42;1.23;;;0.60;99.90;;;;;;5033253;28;20381;-70
2021/01/26 10:30:52;;;;;;;1.80;0.75;;;0.60;99.90;;;;;;5038727;28;20519;-68
2021/01/26 10:33:40;;;;;;;0.75;0.50;;;0.50;99.90;;;;;;5035667;28;20057;-71
2021/01/26 10:36:32;;;;;;;1.88;0.80;;;0.50;99.90;;;;;;5038905;28;20056;-71
2021/01/26 10:39:21;;;;;;;2.80;1.10;;;0.50;99.90;;;;;;5030213;28;20485;-67
2021/01/26 10:41:56;;;;;;;1.73;1.10;;;0.40;99.90;;;;;;5039720;28;20045;-65
2021/01/26 10:44:23;;;;;;;5.72;1.80;;;0.40;99.90;;;;;;5035093;28;20083;-65
2021/01/26 10:46:50;;;;;;;4.47;0.95;;;0.40;99.90;;;;;;5044199;28;20182;-72
2021/01/26 10:49:31;;;;;;;3.05;1.05;;;0.40;99.90;;;;;;5033126;28;20041;-72
2021/01/26 10:52:21;;;;;;;;;;;0.50;99.90;;;;;;5043136;28;20132;-65
2021/01/26 10:54:47;;;;;;;2.97;1.58;;;0.50;99.90;;;;;;5039479;28;20325;-71
2021/01/26 10:57:14;;;;;;;3.35;1.55;;;0.50;99.90;;;;;;5042855;28;20053;-67
2021/01/26 10:59:40;;;;;;;2.47;1.10;;;0.40;99.90;;;;;;5034756;28;20049;-65
2021/01/26 11:02:12;;;;;;;1.73;0.77;;;0.40;99.90;;;;;;5041383;28;20447;-67
2021/01/26 11:04:39;;;;;;;2.00;0.80;;;0.40;99.90;;;;;;5038001;28;21088;-68
2021/01/26 11:07:05;;;;;;;2.72;1.20;;;0.40;99.90;;;;;;5039215;28;20747;-65
2021/01/26 11:09:32;;;;;;;3.33;1.52;;;0.40;99.90;;;;;;5043171;28;20674;-65
2021/01/26 11:11:58;;;;;;;2.58;1.60;;;0.50;99.90;;;;;;5053470;28;20045;-65
2021/01/26 11:14:24;;;;;;;6.22;2.15;;;0.40;99.90;;;;;;5040157;28;20140;-67
2021/01/26 11:16:51;;;;;;;3.65;1.48;;;0.40;99.90;;;;;;5038674;28;20041;-66
2021/01/26 11:19:21;;;;;;;3.92;1.75;;;0.40;99.90;;;;;;5043905;28;20048;-65
2021/01/26 11:21:47;;;;;;;1.20;1.10;;;0.50;99.90;;;;;;5039682;28;20057;-68
2021/01/26 11:24:13;;;;;;;3.55;1.58;;;0.50;99.90;;;;;;5035931;28;20048;-67
2021/01/26 11:26:40;;;;;;;2.72;1.50;;;0.40;99.90;;;;;;5036905;28;20103;-65
2021/01/26 11:29:06;;;;;;;3.28;2.22;;;0.40;99.90;;;;;;5043299;28;20058;-66
2021/01/26 11:31:33;;;;;;;3.15;2.00;;;0.40;99.90;;;;;;5040625;28;20095;-67
2021/01/26 11:34:00;;;;;;;6.07;1.83;;;0.40;99.90;;;;;;5038162;28;20049;-67
2021/01/26 11:36:26;;;;;;;2.53;1.70;;;0.40;99.90;;;;;;5036272;28;20050;-66
2021/01/26 11:38:53;;;;;;;2.10;1.17;;;0.40;99.90;;;;;;5036907;28;20325;-69
2021/01/26 11:41:19;;;;;;;2.05;1.30;;;0.40;99.90;;;;;;5043051;28;20121;-66
2021/01/26 11:43:45;;;;;;;5.00;1.80;;;0.40;99.90;;;;;;5035986;28;20453;-67
2021/01/26 11:46:13;;;;;;;4.20;2.00;;;0.40;99.90;;;;;;5040806;28;20102;-66
2021/01/26 11:48:39;;;;;;;2.63;2.05;;;0.50;99.90;;;;;;5037982;28;20076;-66
2021/01/26 11:51:06;;;;;;;3.28;2.42;;;0.50;99.90;;;;;;5041043;28;20144;-66
2021/01/26 11:53:32;;;;;;;3.00;1.58;;;0.50;99.90;;;;;;5038923;28;20053;-66
2021/01/26 11:56:00;;;;;;;3.17;1.13;;;0.50;99.90;;;;;;5039432;28;20416;-67
2021/01/26 11:58:28;;;;;;;1.48;1.38;;;0.40;99.90;;;;;;5038777;28;20469;-66
2021/01/26 12:00:56;;;;;;;2.55;1.20;;;0.40;99.90;;;;;;5039945;28;20148;-66
2021/01/26 12:03:23;;;;;;;4.88;1.70;;;0.40;99.90;;;;;;5038986;28;20056;-65
2021/01/26 12:05:50;;;;;;;3.75;1.50;;;0.40;99.90;;;;;;5036275;28;20057;-65
2021/01/26 12:08:16;;;;;;;2.50;1.48;;;0.40;99.90;;;;;;5033879;28;20726;-66
2021/01/26 12:10:43;;;;;;;3.47;1.15;;;0.40;99.90;;;;;;5035933;28;20132;-67
2021/01/26 12:13:10;;;;;;;1.38;1.00;;;0.40;99.90;;;;;;5040376;28;20464;-66
2021/01/26 12:15:40;;;;;;;1.27;1.13;;;0.40;99.90;;;;;;5039059;28;20135;-67
2021/01/26 12:18:09;;;;;;;1.23;0.95;;;0.40;99.90;;;;;;5041804;28;20053;-65
2021/01/26 12:20:36;;;;;;;1.20;1.02;;;0.40;99.90;;;;;;5036650;28;20147;-65
2021/01/26 12:23:03;;;;;;;1.65;1.17;;;0.40;99.90;;;;;;5044677;28;20086;-67
2021/01/26 12:25:32;;;;;;;3.05;1.25;;;0.40;99.90;;;;;;5037572;28;20061;-67
2021/01/26 12:27:59;;;;;;;2.63;0.82;;;0.30;99.90;;;;;;5039886;28;20575;-69
2021/01/26 12:30:26;;;;;;;3.00;1.70;;;0.30;99.90;;;;;;5040610;28;20400;-67
2021/01/26 12:32:54;;;;;;;2.22;1.92;;;0.40;99.90;;;;;;5037765;28;20044;-66
2021/01/26 12:35:30;;;;;;;3.38;1.90;;;0.30;99.90;;;;;;5034143;28;20337;-65
2021/01/26 12:37:58;;;;;;;6.63;2.10;;;0.40;99.90;;;;;;5034520;28;20461;-68
2021/01/26 12:40:25;;;;;;;2.80;1.80;;;0.40;99.90;;;;;;5043174;28;20052;-68
2021/01/26 12:42:52;;;;;;;5.45;2.10;;;0.40;99.90;;;;;;5037856;28;20107;-67
2021/01/26 12:45:22;;;;;;;1.90;1.60;;;0.40;99.90;;;;;;5043701;28;20048;-66
2021/01/26 12:47:48;;;;;;;2.85;1.50;;;0.40;99.90;;;;;;5037455;28;20048;-68
2021/01/26 12:50:19;;;;;;;3.85;1.77;;;0.50;99.90;;;;;;5039064;28;20131;-66
2021/01/26 12:52:46;;;;;;;4.35;1.80;;;0.50;99.90;;;;;;5036374;28;20353;-66
2021/01/26 12:55:13;;;;;;;2.60;2.30;;;0.50;99.90;;;;;;5040186;28;20156;-67
2021/01/26 12:57:39;;;;;;;4.85;2.03;;;0.50;99.90;;;;;;5029772;28;20083;-66
2021/01/26 13:00:08;;;;;;;7.60;2.17;;;0.50;99.90;;;;;;5038499;28;20041;-67
2021/01/26 13:02:35;;;;;;;2.05;1.25;;;0.50;99.90;;;;;;5036042;28;20065;-65
2021/01/26 13:05:03;;;;;;;2.30;2.05;;;0.50;99.90;;;;;;5038840;28;20057;-67
2021/01/26 13:07:30;;;;;;;3.30;1.40;;;0.50;99.90;;;;;;5036969;28;20099;-67
2021/01/26 13:09:57;;;;;;;4.00;1.58;;;0.50;99.90;;;;;;5038100;28;20079;-65
2021/01/26 13:12:23;;;;;;;3.33;2.30;;;0.60;99.90;;;;;;5039244;28;20098;-66
2021/01/26 13:14:50;;;;;;;3.40;2.05;;;0.50;99.90;;;;;;5038009;28;20043;-64
2021/01/26 13:17:17;;;;;;;4.40;2.10;;;0.50;99.90;;;;;;5039123;28;20099;-66
2021/01/26 13:19:43;;;;;;;2.50;1.80;;;0.50;99.90;;;;;;5036785;28;20331;-65
2021/01/26 13:22:10;;;;;;;4.65;2.17;;;0.60;99.90;;;;;;5024879;28;20045;-65
2021/01/26 13:24:36;;;;;;;5.35;3.13;;;0.50;99.90;;;;;;5032956;28;20473;-65
2021/01/26 13:27:03;;;;;;;3.00;1.95;;;0.50;99.90;;;;;;5040363;28;20079;-65
2021/01/26 13:29:29;;;;;;;6.35;2.50;;;0.50;99.90;;;;;;5039151;28;20051;-66
2021/01/26 13:31:57;;;;;;;10.40;2.63;;;0.50;99.90;;;;;;5040098;28;20107;-70
2021/01/26 13:34:25;;;;;;;4.10;1.95;;;0.50;99.90;;;;;;5037004;28;20214;-66
2021/01/26 13:36:51;;;;;;;2.78;1.80;;;0.60;99.90;;;;;;5036707;28;20041;-64
2021/01/26 13:39:18;;;;;;;3.65;1.83;;;0.50;99.90;;;;;;5039354;28;20040;-66